Time;durP1;ratioP1;P1;durP2;ratioP2;P2;SDS_P1;SDS_P2;PMS_P1;PMS_P2;Temp;Humidity;BMP_temperature;BMP_pressure;BME280_temperature;BME280_humidity;BME280_pressure;Samples;Min_cycle;Max_cycle;Signal;HPM_P1;HPM_P2
2023/06/04 00:01:21;;;;;;;;;;;;;;;-140.72;0.00;52439.56;6219282;23;20074;-73
2023/06/04 00:03:47;;;;;;;;;;;;;;;-140.72;0.00;52457.81;6218585;23;19912;-72
2023/06/04 00:06:12;;;;;;;;;;;;;;;-140.72;0.00;52425.34;6218495;23;19916;-72
2023/06/04 00:08:37;;;;;;;;;;;;;;;-140.72;0.00;52476.09;6245532;23;19912;-73
2023/06/04 00:11:02;;;;;;;;;;;;;;;-140.72;0.00;52478.13;6246096;23;19943;-71
2023/06/04 00:13:28;;;;;;;;;;;;;;;-140.72;0.00;52451.72;6246324;23;19911;-72
2023/06/04 00:15:53;;;;;;;;;;;;;;;-140.72;0.00;52443.63;6218411;23;20343;-72
2023/06/04 00:18:18;;;;;;;;;;;;;;;-140.72;0.00;52476.09;6218472;23;19912;-72
2023/06/04 00:20:43;;;;;;;;;;;;;;;-140.72;0.00;52435.50;6245711;23;19928;-72
2023/06/04 00:23:08;;;;;;;;;;;;;;;-140.72;0.00;52470.00;6218768;23;19911;-72
2023/06/04 00:25:34;;;;;;;;;;;;;;;-140.72;0.00;52447.69;6245612;23;19990;-69
2023/06/04 00:27:59;;;;;;;;;;;;;;;-140.72;0.00;52465.94;6245271;23;19918;-70
2023/06/04 00:30:24;;;;;;;;;;;;;;;-140.72;0.00;52494.34;6245458;23;19923;-70
2023/06/04 00:32:49;;;;;;;;;;;;;;;-140.72;0.00;52498.41;6218764;23;19912;-73
2023/06/04 00:35:15;;;;;;;;;;;;;;;-140.72;0.00;52457.81;6245588;23;20284;-71
2023/06/04 00:37:40;;;;;;;;;;;;;;;-140.72;0.00;52488.25;6245577;23;19912;-70
2023/06/04 00:40:05;;;;;;;;;;;;;;;-140.72;0.00;52459.84;6245208;22;19918;-71
2023/06/04 00:42:31;;;;;;;;;;;;;;;-140.72;0.00;52457.81;6245229;23;19966;-71
2023/06/04 00:44:57;;;;;;;;;;;;;;;-140.72;0.00;52512.59;6245996;23;19918;-71
2023/06/04 00:47:22;;;;;;;;;;;;;;;-140.72;0.00;52455.78;6218260;23;19923;-71
2023/06/04 00:49:47;;;;;;;;;;;;;;;-140.72;0.00;52480.16;6246260;23;19911;-71
2023/06/04 00:52:15;;;;;;;;;;;;;;;-140.72;2.12;52508.56;6245704;23;19962;-71
2023/06/04 00:54:40;;;;;;;;;;;;;;;-140.72;3.70;52482.16;6246067;23;19945;-71
2023/06/04 00:57:07;;;;;;;;;;;;;;;-140.72;8.53;52530.88;6218831;23;20300;-71
2023/06/04 00:59:41;;;;;;;;;;;;;;;-140.72;7.37;52492.31;6248863;23;20015;-71
2023/06/04 01:02:09;;;;;;;;;;;;;;;-140.72;6.13;52461.88;6247549;23;19927;-71
2023/06/04 01:04:49;;;;;;;;;;;;;;;-140.72;5.50;52484.19;6246058;23;19911;-71
2023/06/04 01:07:15;;;;;;;;;;;;;;;-140.72;5.90;52459.84;6219161;23;20003;-71
2023/06/04 01:09:40;;;;;;;;;;;;;;;-140.72;8.34;52457.81;6245392;23;19911;-71
2023/06/04 01:12:12;;;;;;;;;;;;;;;-140.72;9.02;52502.47;6243770;23;19915;-72
2023/06/04 01:14:37;;;;;;;;;;;;;;;-140.72;9.15;52484.19;6244876;23;20053;-71
2023/06/04 01:17:15;;;;;;;;;;;;;;;-140.72;12.54;52494.34;6245069;23;19924;-71
2023/06/04 01:19:47;;;;;;;;;;;;;;;-140.72;13.96;52482.16;6245137;23;20442;-71
2023/06/04 01:22:20;;;;;;;;;;;;;;;-140.72;15.24;52518.69;6245534;23;20339;-71
2023/06/04 01:24:55;;;;;;;;;;;;;;;-140.72;19.96;52455.78;6246853;23;19912;-71
2023/06/04 01:27:23;;;;;;;;;;;;;;;-140.72;22.05;52451.72;6244561;23;20760;-71
2023/06/04 01:29:49;;;;;;;;;;;;;;;-140.72;23.25;52502.47;6246109;23;19919;-71
2023/06/04 01:32:15;;;;;;;;;;;;;;;-140.72;30.27;52480.16;6246029;23;20316;-71
2023/06/04 01:34:44;;;;;;;;;;;;;;;-140.72;34.08;52532.91;6245024;23;19912;-71
2023/06/04 01:37:11;;;;;;;;;;;;;;;-140.72;43.29;52496.38;6244804;23;19912;-72
2023/06/04 01:39:36;;;;;;;;;;;;;;;-140.72;46.73;52512.59;6217999;23;19939;-71
2023/06/04 01:42:01;;;;;;;;;;;;;;;-140.72;52.61;52488.25;6244568;23;19961;-70
2023/06/04 01:44:27;;;;;;;;;;;;;;;-140.72;53.33;52494.34;6244301;23;19950;-71
2023/06/04 01:46:52;;;;;;;;;;;;;;;-140.72;57.35;52463.91;6244353;23;20324;-71
2023/06/04 01:49:17;;;;;;;;;;;;;;;-140.72;57.34;52472.03;6244303;23;19931;-71
2023/06/04 01:51:42;;;;;;;;;;;;;;;-140.72;61.08;52530.88;6217365;23;19933;-71
2023/06/04 01:54:07;;;;;;;;;;;;;;;-140.72;64.52;52490.28;6244609;23;19987;-70
2023/06/04 01:56:33;;;;;;;;;;;;;;;-140.72;65.31;52506.53;6244450;23;20345;-70
2023/06/04 01:58:58;;;;;;;;;;;;;;;-140.72;70.12;52508.56;6245068;23;19911;-70
2023/06/04 02:01:23;;;;;;;;;;;;;;;-140.72;72.77;52492.31;6244648;23;20284;-70
2023/06/04 02:03:48;;;;;;;;;;;;;;;-140.72;73.09;52514.63;6245164;23;19946;-70
2023/06/04 02:06:14;;;;;;;;;;;;;;;-140.72;76.70;52502.47;6244158;23;19954;-71
2023/06/04 02:08:41;;;;;;;;;;;;;;;-140.72;76.41;52476.09;6244673;23;19912;-71
2023/06/04 02:11:06;;;;;;;;;;;;;;;-140.72;78.25;52496.38;6217548;23;19941;-71
2023/06/04 02:13:31;;;;;;;;;;;;;;;-140.72;79.14;52467.97;6217641;23;20071;-71
2023/06/04 02:15:56;;;;;;;;;;;;;;;-140.72;77.56;52514.63;6244160;23;20316;-71
2023/06/04 02:18:22;;;;;;;;;;;;;;;-140.72;78.44;52508.56;6244214;23;20409;-71
2023/06/04 02:20:48;;;;;;;;;;;;;;;-140.72;77.14;52496.38;6244716;23;20220;-71
2023/06/04 02:23:14;;;;;;;;;;;;;;;-140.72;76.54;52508.56;6244563;23;19912;-71
2023/06/04 02:25:40;;;;;;;;;;;;;;;-140.72;81.02;52496.38;6244406;23;19915;-72
2023/06/04 02:28:06;;;;;;;;;;;;;;;-140.72;81.20;52510.59;6244615;23;19923;-71
2023/06/04 02:30:31;;;;;;;;;;;;;;;-140.72;79.50;52504.50;6244850;23;19920;-72
2023/06/04 02:33:00;;;;;;;;;;;;;;;-140.72;81.07;52498.41;6245489;23;19989;-71
2023/06/04 02:35:26;;;;;;;;;;;;;;;-140.72;84.90;52512.59;6246419;23;19946;-72
2023/06/04 02:37:51;;;;;;;;;;;;;;;-140.72;86.61;52518.69;6218688;23;19963;-72
2023/06/04 02:40:16;;;;;;;;;;;;;;;-140.72;87.69;52536.97;6246361;22;19935;-71
2023/06/04 02:42:42;;;;;;;;;;;;;;;-140.72;88.51;52534.94;6244920;23;20300;-72
2023/06/04 02:45:07;;;;;;;;;;;;;;;-140.72;87.34;52512.59;6244468;23;19919;-71
2023/06/04 02:47:32;;;;;;;;;;;;;;;-140.72;87.47;52516.66;6244597;23;20387;-72
2023/06/04 02:49:57;;;;;;;;;;;;;;;-140.72;88.66;52490.28;6217551;23;20327;-71
2023/06/04 02:52:25;;;;;;;;;;;;;;;-140.72;89.13;52547.09;6244162;23;19911;-71
2023/06/04 02:54:50;;;;;;;;;;;;;;;-140.72;89.54;52508.56;6244852;23;20342;-71
2023/06/04 02:57:15;;;;;;;;;;;;;;;-140.72;89.68;52514.63;6216706;23;19911;-71
2023/06/04 02:59:40;;;;;;;;;;;;;;;-140.72;85.89;52504.50;6244195;23;19918;-71
2023/06/04 03:02:06;;;;;;;;;;;;;;;-140.72;86.27;52541.03;6244634;23;20320;-71
2023/06/04 03:04:34;;;;;;;;;;;;;;;-140.72;83.47;52518.69;6244044;23;19954;-71
2023/06/04 03:07:00;;;;;;;;;;;;;;;-140.72;84.21;52520.72;6244710;23;19911;-71
2023/06/04 03:09:25;;;;;;;;;;;;;;;-140.72;84.32;52512.59;6244373;23;19911;-72
2023/06/04 03:11:50;;;;;;;;;;;;;;;-140.72;80.48;52539.00;6246612;23;19918;-71
2023/06/04 03:14:34;;;;;;;;;;;;;;;-140.72;78.14;52520.72;6244681;23;20308;-71
2023/06/04 03:17:00;;;;;;;;;;;;;;;-140.72;81.86;52551.16;6244650;23;19954;-71
2023/06/04 03:19:36;;;;;;;;;;;;;;;-140.72;81.86;52565.38;6246258;23;19915;-71
2023/06/04 03:22:05;;;;;;;;;;;;;;;-140.72;84.87;52543.03;6245911;23;19916;-71
2023/06/04 03:24:30;;;;;;;;;;;;;;;-140.72;87.75;52520.72;6246736;23;19934;-71
2023/06/04 03:26:55;;;;;;;;;;;;;;;-140.72;85.64;52512.59;6245603;23;19912;-71
2023/06/04 03:29:21;;;;;;;;;;;;;;;-140.72;88.46;52561.31;6245570;23;19911;-71
2023/06/04 03:31:46;;;;;;;;;;;;;;;-140.72;88.44;52536.97;6246437;23;19911;-71
2023/06/04 03:34:11;;;;;;;;;;;;;;;-140.72;87.89;52500.44;6246698;23;19927;-71
2023/06/04 03:36:37;;;;;;;;;;;;;;;-140.72;89.69;52565.38;6246527;23;19952;-71
2023/06/04 03:39:04;;;;;;;;;;;;;;;-140.72;90.47;52541.03;6218959;23;20042;-71
2023/06/04 03:41:29;;;;;;;;;;;;;;;-140.72;98.74;52484.19;6246374;22;19911;-71
2023/06/04 03:43:54;;;;;;;;;;;;;;;-140.72;94.71;52536.97;6219352;23;19918;-71
2023/06/04 03:46:20;;;;;;;;;;;;;;;-140.72;90.39;52522.75;6246172;23;19911;-71
2023/06/04 03:48:45;;;;;;;;;;;;;;;-140.72;85.83;52561.31;6245830;23;19912;-71
2023/06/04 03:51:11;;;;;;;;;;;;;;;-140.72;85.04;52536.97;6245451;23;20196;-71
2023/06/04 03:53:36;;;;;;;;;;;;;;;-140.72;88.53;52534.94;6245798;23;19969;-71
2023/06/04 03:56:01;;;;;;;;;;;;;;;-140.72;90.00;52532.91;6245700;23;19915;-70
2023/06/04 03:58:28;;;;;;;;;;;;;;;-140.72;86.80;52549.13;6246101;23;19911;-71
2023/06/04 04:00:53;;;;;;;;;;;;;;;-140.72;86.14;52520.72;6246134;23;20292;-71
2023/06/04 04:03:19;;;;;;;;;;;;;;;-140.72;77.68;52557.25;6245749;23;19912;-71
2023/06/04 04:05:44;;;;;;;;;;;;;;;-140.72;73.92;52520.72;6218487;23;19915;-71
2023/06/04 04:08:09;;;;;;;;;;;;;;;-140.72;75.60;52530.88;6245081;23;19912;-71
2023/06/04 04:10:35;;;;;;;;;;;;;;;-140.72;71.51;52508.56;6245601;23;20238;-71
2023/06/04 04:13:00;;;;;;;;;;;;;;;-140.72;65.02;52543.03;6218364;23;19911;-71
2023/06/04 04:15:25;;;;;;;;;;;;;;;-140.72;59.42;52561.31;6218929;23;19990;-71
2023/06/04 04:17:50;;;;;;;;;;;;;;;-140.72;55.59;52508.56;6245761;23;19915;-70
2023/06/04 04:20:16;;;;;;;;;;;;;;;-140.72;53.20;52545.06;6252125;23;20292;-70
2023/06/04 04:22:41;;;;;;;;;;;;;;;-140.72;50.65;52520.72;6245768;23;19918;-70
2023/06/04 04:25:07;;;;;;;;;;;;;;;-140.72;46.29;52524.78;6245634;23;19912;-71
2023/06/04 04:27:34;;;;;;;;;;;;;;;-140.72;42.51;52476.09;6245775;23;20001;-71
2023/06/04 04:30:00;;;;;;;;;;;;;;;-140.72;43.38;52541.03;6245784;23;19915;-70
2023/06/04 04:32:26;;;;;;;;;;;;;;;-140.72;37.92;52492.31;6246000;23;20410;-71
2023/06/04 04:34:54;;;;;;;;;;;;;;;-140.72;35.43;52472.03;6246542;23;19912;-71
2023/06/04 04:37:21;;;;;;;;;;;;;;;-140.72;29.10;52514.63;6245837;23;19912;-71
2023/06/04 04:39:47;;;;;;;;;;;;;;;-140.72;28.52;52502.47;6218245;23;19918;-71
2023/06/04 04:42:12;;;;;;;;;;;;;;;-140.72;27.65;52543.03;6245014;23;20307;-70
2023/06/04 04:44:37;;;;;;;;;;;;;;;-140.72;33.68;52490.28;6245317;23;20041;-70
2023/06/04 04:47:03;;;;;;;;;;;;;;;-140.72;35.24;52514.63;6218333;23;20339;-71
2023/06/04 04:49:28;;;;;;;;;;;;;;;-140.72;30.43;52472.03;6218250;23;19911;-71
2023/06/04 04:52:01;;;;;;;;;;;;;;;-140.72;24.58;52514.63;6245428;23;19911;-71
2023/06/04 04:54:26;;;;;;;;;;;;;;;-140.72;17.19;52528.84;6245886;23;19911;-71
2023/06/04 04:56:52;;;;;;;;;;;;;;;-140.72;15.20;52514.63;6245388;23;19942;-71
2023/06/04 04:59:17;;;;;;;;;;;;;;;-140.72;8.90;52516.66;6221556;23;19911;-71
2023/06/04 05:01:42;;;;;;;;;;;;;;;-140.72;9.13;52504.50;6245446;23;19969;-71
2023/06/04 05:04:07;;;;;;;;;;;;;;;-140.72;4.56;52500.44;6245170;23;20013;-71
2023/06/04 05:06:32;;;;;;;;;;;;;;;-140.72;8.60;52516.66;6245243;23;20013;-71
2023/06/04 05:08:58;;;;;;;;;;;;;;;-140.72;8.08;52526.81;6245055;23;20391;-71
2023/06/04 05:11:23;;;;;;;;;;;;;;;-140.72;3.61;52530.88;6245295;23;19991;-71
2023/06/04 05:13:48;;;;;;;;;;;;;;;-140.72;0.00;52457.81;6244698;23;19946;-71
2023/06/04 05:16:13;;;;;;;;;;;;;;;-140.72;0.00;52520.72;6244893;23;19993;-71
2023/06/04 05:18:44;;;;;;;;;;;;;;;-140.72;0.00;52520.72;6245989;23;19919;-70
2023/06/04 05:21:11;;;;;;;;;;;;;;;-140.72;0.00;52480.16;6244962;23;20216;-71
2023/06/04 05:23:37;;;;;;;;;;;;;;;-140.72;0.00;52504.50;6245579;23;20263;-71
2023/06/04 05:26:03;;;;;;;;;;;;;;;-140.72;0.00;52526.81;6244545;23;19947;-71
2023/06/04 05:28:28;;;;;;;;;;;;;;;-140.72;0.00;52484.19;6244732;23;20303;-71
2023/06/04 05:30:58;;;;;;;;;;;;;;;-140.72;0.00;52502.47;6244806;23;19919;-71
2023/06/04 05:33:24;;;;;;;;;;;;;;;-140.72;0.00;52463.91;6244526;23;20343;-71
2023/06/04 05:35:49;;;;;;;;;;;;;;;-140.72;0.00;52518.69;6245239;23;19911;-73
2023/06/04 05:38:18;;;;;;;;;;;;;;;-140.72;0.00;52476.09;6245732;23;20351;-75
2023/06/04 05:40:43;;;;;;;;;;;;;;;-140.72;0.00;52492.31;6218357;23;19915;-75
2023/06/04 05:43:08;;;;;;;;;;;;;;;-140.72;0.00;52498.41;6245454;23;20320;-77
2023/06/04 05:45:34;;;;;;;;;;;;;;;-140.72;0.00;52496.38;6244818;23;19911;-75
2023/06/04 05:47:59;;;;;;;;;;;;;;;-140.72;0.00;52490.28;6244642;23;20002;-75
2023/06/04 05:50:24;;;;;;;;;;;;;;;-140.72;0.00;52480.16;6217562;23;19994;-75
2023/06/04 05:52:50;;;;;;;;;;;;;;;-140.72;0.00;52459.84;6244890;23;19911;-75
2023/06/04 05:55:16;;;;;;;;;;;;;;;-140.72;0.00;52435.50;6245117;23;19911;-75
2023/06/04 05:57:41;;;;;;;;;;;;;;;-140.72;0.00;52480.16;6247669;23;20259;-74
2023/06/04 06:00:10;;;;;;;;;;;;;;;-140.72;0.00;52453.75;6222422;23;19915;-77
2023/06/04 06:02:35;;;;;;;;;;;;;;;-140.72;0.00;52474.06;6217047;23;20243;-75
2023/06/04 06:05:01;;;;;;;;;;;;;;;-140.72;0.00;52407.09;6245117;23;19916;-75
2023/06/04 06:07:26;;;;;;;;;;;;;;;-140.72;0.00;52474.06;6244906;23;19934;-75
2023/06/04 06:09:52;;;;;;;;;;;;;;;-140.72;0.00;52449.72;6245130;23;19915;-75
2023/06/04 06:12:17;;;;;;;;;;;;;;;-140.72;0.00;52423.31;6245754;23;19950;-75
2023/06/04 06:14:42;;;;;;;;;;;;;;;-140.72;0.00;52415.22;6219313;23;19915;-78
2023/06/04 06:17:07;;;;;;;;;;;;;;;-140.72;0.00;52413.19;6219673;23;19916;-75
2023/06/04 06:19:32;;;;;;;;;;;;;;;-140.72;0.00;52459.84;6245054;23;20302;-75
2023/06/04 06:21:58;;;;;;;;;;;;;;;-140.72;0.00;52429.41;6245917;23;20406;-74
2023/06/04 06:24:23;;;;;;;;;;;;;;;-140.72;0.00;52427.38;6247265;23;19990;-76
2023/06/04 06:26:49;;;;;;;;;;;;;;;-140.72;0.00;52427.38;6245836;23;20283;-76
2023/06/04 06:29:14;;;;;;;;;;;;;;;-140.72;0.00;52429.41;6245173;23;20322;-75
2023/06/04 06:31:40;;;;;;;;;;;;;;;-140.72;0.00;52427.38;6245738;23;19918;-75
2023/06/04 06:34:05;;;;;;;;;;;;;;;-140.72;0.00;52433.47;6217896;23;19912;-75
2023/06/04 06:36:30;;;;;;;;;;;;;;;-140.72;0.00;52392.88;6245189;23;19966;-77
2023/06/04 06:39:15;;;;;;;;;;;;;;;-140.72;0.00;52407.09;6223580;23;20375;-75
2023/06/04 06:41:41;;;;;;;;;;;;;;;-140.72;0.00;52394.91;6221090;23;20354;-78
2023/06/04 06:44:06;;;;;;;;;;;;;;;-140.72;0.00;52384.78;6246737;23;19911;-77
2023/06/04 06:46:31;;;;;;;;;;;;;;;-140.72;0.00;52390.84;6252765;23;19981;-77
2023/06/04 06:48:57;;;;;;;;;;;;;;;-140.72;0.00;52407.09;6219006;23;19912;-78
2023/06/04 06:51:22;;;;;;;;;;;;;;;-140.72;0.00;52380.72;6217462;23;19916;-74
2023/06/04 06:53:49;;;;;;;;;;;;;;;-140.72;0.00;52423.31;6245880;23;19916;-73
2023/06/04 06:56:15;;;;;;;;;;;;;;;-140.72;0.00;52398.97;6246975;23;19911;-73
2023/06/04 06:58:40;;;;;;;;;;;;;;;-140.72;0.00;52405.06;6219755;23;19916;-73
2023/06/04 07:01:06;;;;;;;;;;;;;;;-140.72;0.00;52409.13;6246255;23;19916;-73
2023/06/04 07:03:31;;;;;;;;;;;;;;;-140.72;0.00;52398.97;6246876;23;19915;-72
2023/06/04 07:05:56;;;;;;;;;;;;;;;-140.72;0.00;52384.78;6246413;23;19911;-74
2023/06/04 07:08:21;;;;;;;;;;;;;;;-140.72;0.00;52401.00;6246471;23;19938;-73
2023/06/04 07:10:48;;;;;;;;;;;;;;;-140.72;0.00;52421.28;6246669;23;20266;-73
2023/06/04 07:13:13;;;;;;;;;;;;;;;-140.72;0.00;52342.16;6219142;23;19943;-74
2023/06/04 07:15:38;;;;;;;;;;;;;;;-140.72;0.00;52346.22;6245900;23;20002;-72
2023/06/04 07:18:04;;;;;;;;;;;;;;;-140.72;0.00;52368.53;6246387;23;19912;-73
2023/06/04 07:20:30;;;;;;;;;;;;;;;-140.72;0.00;52348.25;6246112;23;19922;-72
2023/06/04 07:22:55;;;;;;;;;;;;;;;-140.72;0.00;52358.41;6246515;23;19934;-74
2023/06/04 07:25:22;;;;;;;;;;;;;;;-140.72;0.00;52342.16;6246908;23;20018;-75
2023/06/04 07:28:03;;;;;;;;;;;;;;;-140.72;0.00;52330.00;6246416;23;20308;-73
2023/06/04 07:30:29;;;;;;;;;;;;;;;-140.72;0.00;52346.22;6246310;23;20241;-74
2023/06/04 07:32:54;;;;;;;;;;;;;;;-140.72;0.00;52358.41;6245826;23;19919;-75
2023/06/04 07:35:19;;;;;;;;;;;;;;;-140.72;0.00;52321.88;6245940;23;19962;-74
2023/06/04 07:37:47;;;;;;;;;;;;;;;-140.72;0.00;52342.16;6250362;23;19911;-73
2023/06/04 07:40:12;;;;;;;;;;;;;;;-140.72;0.00;52309.69;6250281;22;19928;-74
2023/06/04 07:42:38;;;;;;;;;;;;;;;-140.72;0.00;52338.09;6245785;23;19966;-72
2023/06/04 07:45:03;;;;;;;;;;;;;;;-140.72;0.00;52342.16;6245037;23;20664;-71
2023/06/04 07:47:28;;;;;;;;;;;;;;;-140.72;0.00;52317.81;6218810;23;19994;-70
2023/06/04 07:49:53;;;;;;;;;;;;;;;-140.72;0.00;52325.94;6245862;23;19912;-74
2023/06/04 07:52:19;;;;;;;;;;;;;;;-140.72;0.00;52307.66;6246052;23;20296;-69
2023/06/04 07:54:45;;;;;;;;;;;;;;;-140.72;0.00;52319.84;6218788;23;19938;-68
2023/06/04 07:57:11;;;;;;;;;;;;;;;-140.72;0.00;52295.50;6246266;23;19919;-68
2023/06/04 07:59:36;;;;;;;;;;;;;;;-140.72;0.00;52238.69;6245855;23;20180;-72
2023/06/04 08:02:01;;;;;;;;;;;;;;;-140.72;0.00;52273.19;6245550;23;20268;-69
2023/06/04 08:04:26;;;;;;;;;;;;;;;-140.72;0.00;52309.69;6243988;23;19911;-69
2023/06/04 08:06:52;;;;;;;;;;;;;;;-140.72;0.00;52265.06;6246202;23;19920;-74
2023/06/04 08:09:24;;;;;;;;;;;;;;;-140.72;0.00;52277.22;6245859;23;19911;-72
2023/06/04 08:11:50;;;;;;;;;;;;;;;-140.72;0.00;52236.66;6245259;23;19912;-69
2023/06/04 08:14:16;;;;;;;;;;;;;;;-140.72;0.00;52242.75;6245392;23;20529;-69
2023/06/04 08:16:42;;;;;;;;;;;;;;;-140.72;0.00;52218.38;6245751;23;20369;-71
2023/06/04 08:19:07;;;;;;;;;;;;;;;-140.72;0.00;52226.50;6219080;23;19912;-72
2023/06/04 08:21:33;;;;;;;;;;;;;;;-140.72;0.00;52281.28;6245248;23;19916;-71
2023/06/04 08:23:58;;;;;;;;;;;;;;;-140.72;0.00;52230.56;6245538;23;19911;-68
2023/06/04 08:26:24;;;;;;;;;;;;;;;-140.72;0.00;52179.84;6245967;23;19911;-72
2023/06/04 08:28:52;;;;;;;;;;;;;;;-140.72;0.00;52204.19;6246122;23;19918;-71
2023/06/04 08:31:17;;;;;;;;;;;;;;;-140.72;0.00;52187.97;6246208;23;19949;-71
2023/06/04 08:33:44;;;;;;;;;;;;;;;-140.72;0.00;52204.19;6246399;23;19911;-70
2023/06/04 08:36:09;;;;;;;;;;;;;;;-140.72;0.00;52159.56;6246457;23;19911;-70
2023/06/04 08:38:35;;;;;;;;;;;;;;;-140.72;0.00;52175.78;6247321;23;19911;-72
2023/06/04 08:41:11;;;;;;;;;;;;;;;-140.72;0.00;52165.63;6246152;22;19911;-71
2023/06/04 08:43:39;;;;;;;;;;;;;;;-140.72;0.00;52206.22;6236406;23;19912;-75
2023/06/04 08:46:08;;;;;;;;;;;;;;;-140.72;0.00;52185.94;6219469;23;19919;-75
2023/06/04 08:48:34;;;;;;;;;;;;;;;-140.72;0.00;52177.81;6246839;23;19911;-71
2023/06/04 08:51:00;;;;;;;;;;;;;;;-140.72;0.00;52163.59;6246039;23;19912;-74
2023/06/04 08:53:25;;;;;;;;;;;;;;;-140.72;0.00;52196.06;6246436;23;19917;-76
2023/06/04 08:55:52;;;;;;;;;;;;;;;-140.72;0.00;52143.31;6246716;23;19974;-78
2023/06/04 08:58:19;;;;;;;;;;;;;;;-140.72;0.00;52177.81;6223319;23;20358;-74
2023/06/04 09:00:44;;;;;;;;;;;;;;;-140.72;0.00;52112.88;6245516;23;19911;-75
2023/06/04 09:03:14;;;;;;;;;;;;;;;-140.72;0.00;52127.09;6218523;23;19918;-76
2023/06/04 09:05:42;;;;;;;;;;;;;;;-140.72;0.00;52133.16;6245768;23;19912;-74
2023/06/04 09:08:08;;;;;;;;;;;;;;;-140.72;0.00;52153.47;6218864;23;19912;-75
2023/06/04 09:10:36;;;;;;;;;;;;;;;-140.72;0.00;52108.81;6218660;23;20275;-75
2023/06/04 09:13:03;;;;;;;;;;;;;;;-140.72;0.00;52110.84;6218687;23;19912;-75
2023/06/04 09:15:28;;;;;;;;;;;;;;;-140.72;0.00;52133.16;6246195;23;19911;-74
2023/06/04 09:17:53;;;;;;;;;;;;;;;-140.72;0.00;52098.69;6251530;23;19973;-73
2023/06/04 09:20:37;;;;;;;;;;;;;;;-140.72;0.00;52106.78;6255369;23;19955;-73
2023/06/04 09:23:11;;;;;;;;;;;;;;;-140.72;0.00;52094.63;6219114;23;19915;-79
2023/06/04 09:25:41;;;;;;;;;;;;;;;-140.72;0.00;52076.34;6219547;23;19912;-78
2023/06/04 09:28:07;;;;;;;;;;;;;;;-140.72;0.00;52074.34;6246600;23;19911;-76
2023/06/04 09:30:32;;;;;;;;;;;;;;;-140.72;0.00;52094.63;6245533;23;19923;-76
2023/06/04 09:33:09;;;;;;;;;;;;;;;-140.72;0.00;52033.75;6219028;23;19911;-76
2023/06/04 09:35:35;;;;;;;;;;;;;;;-140.72;0.00;52009.41;6221834;23;19912;-72
2023/06/04 09:38:00;;;;;;;;;;;;;;;-140.72;0.00;52045.94;6218798;23;19919;-68
2023/06/04 09:40:34;;;;;;;;;;;;;;;-140.72;0.00;52041.88;6245132;22;19912;-68
2023/06/04 09:43:00;;;;;;;;;;;;;;;-140.72;0.00;52035.78;6245574;23;20312;-68
2023/06/04 09:45:32;;;;;;;;;;;;;;;-140.72;0.00;52045.94;6245249;23;19991;-72
2023/06/04 09:47:57;;;;;;;;;;;;;;;-140.72;0.00;52021.56;6245987;23;20018;-69
2023/06/04 09:50:41;;;;;;;;;;;;;;;-140.72;0.00;52023.59;6218508;23;19915;-69
2023/06/04 09:56:11;;;;;;;;;;;;;;;-140.72;0.00;51989.13;6245752;23;20247;-71
2023/06/04 09:58:37;;;;;;;;;;;;;;;-140.72;0.00;51989.13;6245327;23;20336;-70
2023/06/04 10:01:04;;;;;;;;;;;;;;;-140.72;0.00;52005.34;6245162;23;20331;-68
2023/06/04 10:03:33;;;;;;;;;;;;;;;-140.72;0.00;51940.41;6245503;23;19911;-68
2023/06/04 10:06:00;;;;;;;;;;;;;;;-140.72;0.00;51976.94;6245431;23;19998;-70
2023/06/04 10:08:29;;;;;;;;;;;;;;;-140.72;0.00;51948.53;6245756;23;19985;-68
2023/06/04 10:11:02;;;;;;;;;;;;;;;-140.72;0.00;51942.44;6245938;23;19956;-71
2023/06/04 10:13:35;;;;;;;;;;;;;;;-140.72;0.00;51938.41;6246298;23;19986;-70
2023/06/04 10:16:01;;;;;;;;;;;;;;;-140.72;0.00;51930.28;6245630;23;19983;-74
2023/06/04 10:18:49;;;;;;;;;;;;;;;-140.72;0.00;51932.31;6252123;23;20232;-72
2023/06/04 10:21:17;;;;;;;;;;;;;;;-140.72;0.00;51905.94;6247916;23;19911;-76
2023/06/04 10:23:44;;;;;;;;;;;;;;;-140.72;0.00;51830.88;6247525;23;20047;-76
2023/06/04 10:26:13;;;;;;;;;;;;;;;-140.72;0.00;51857.25;6219171;23;20232;-75
2023/06/04 10:28:40;;;;;;;;;;;;;;;-140.72;0.00;51899.84;6245101;23;19916;-76
2023/06/04 10:31:05;;;;;;;;;;;;;;;-140.72;0.00;51851.16;6245778;23;19915;-76
2023/06/04 10:33:46;;;;;;;;;;;;;;;-140.72;0.00;51851.16;6245961;23;19922;-77
2023/06/04 10:36:15;;;;;;;;;;;;;;;-140.72;0.00;51857.25;6246129;23;19912;-76
2023/06/04 10:38:45;;;;;;;;;;;;;;;-140.72;0.00;51836.94;6245396;23;19987;-77
2023/06/04 10:41:15;;;;;;;;;;;;;;;-140.72;0.00;51820.72;6246542;22;19911;-76
2023/06/04 10:43:40;;;;;;;;;;;;;;;-140.72;0.00;51834.91;6219318;23;19991;-76
2023/06/04 10:46:13;;;;;;;;;;;;;;;-140.72;0.00;51802.47;6245131;23;19986;-77
2023/06/04 10:48:45;;;;;;;;;;;;;;;-140.72;0.00;51753.78;6245672;23;20270;-76
2023/06/04 10:51:10;;;;;;;;;;;;;;;-140.72;0.00;51812.59;6245137;23;19912;-74
2023/06/04 10:53:38;;;;;;;;;;;;;;;-140.72;0.00;51834.91;6244774;23;20022;-75
2023/06/04 10:56:12;;;;;;;;;;;;;;;-140.72;0.00;51757.81;6245187;23;20217;-76
2023/06/04 10:58:38;;;;;;;;;;;;;;;-140.72;0.00;51711.16;6220826;23;19939;-76
2023/06/04 11:01:03;;;;;;;;;;;;;;;-140.72;0.00;51723.34;6246880;23;19969;-75
2023/06/04 11:03:37;;;;;;;;;;;;;;;-140.72;0.00;51696.97;6244623;23;20378;-76
2023/06/04 11:06:18;;;;;;;;;;;;;;;-140.72;0.00;51739.56;6218251;23;19990;-75
2023/06/04 11:08:44;;;;;;;;;;;;;;;-140.72;0.00;51676.69;6217510;23;19912;-75
2023/06/04 11:11:19;;;;;;;;;;;;;;;-140.72;0.00;51682.75;6217440;23;20013;-75
2023/06/04 11:13:44;;;;;;;;;;;;;;;-140.72;0.00;51678.72;6218116;23;19915;-75
2023/06/04 11:16:16;;;;;;;;;;;;;;;-140.72;0.00;51625.97;6244316;23;20053;-76
2023/06/04 11:18:42;;;;;;;;;;;;;;;-140.72;0.00;51648.28;6217757;23;20346;-75
2023/06/04 11:21:07;;;;;;;;;;;;;;;-140.72;0.00;51670.59;6217676;23;19998;-76
2023/06/04 11:23:33;;;;;;;;;;;;;;;-140.72;0.00;51652.34;6217568;23;19962;-75
2023/06/04 11:25:58;;;;;;;;;;;;;;;-140.72;0.00;51688.84;6245174;23;19981;-75
2023/06/04 11:28:35;;;;;;;;;;;;;;;-140.72;0.00;51660.44;6245271;23;19911;-76
2023/06/04 11:31:05;;;;;;;;;;;;;;;-140.72;0.00;51646.25;6245082;23;19918;-75
2023/06/04 11:39:34;;;;;;;;;;;;;;;-140.72;0.00;51615.81;6245943;22;20029;-75
2023/06/04 11:42:04;;;;;;;;;;;;;;;-140.72;0.00;51609.72;6246270;23;19974;-75
2023/06/04 11:44:29;;;;;;;;;;;;;;;-140.72;0.00;51615.81;6246845;23;19912;-76
2023/06/04 11:46:54;;;;;;;;;;;;;;;-140.72;0.00;51599.59;6220436;23;19918;-75
2023/06/04 11:49:20;;;;;;;;;;;;;;;-140.72;0.00;51615.81;6220105;23;19916;-76
2023/06/04 11:51:46;;;;;;;;;;;;;;;-140.72;0.00;51601.63;6246858;23;19935;-75
2023/06/04 11:54:12;;;;;;;;;;;;;;;-140.72;0.00;51520.47;6246287;23;19911;-75
2023/06/04 11:56:44;;;;;;;;;;;;;;;-140.72;0.00;51567.13;6246655;23;20342;-76
2023/06/04 11:59:13;;;;;;;;;;;;;;;-140.72;0.00;51634.06;6221219;23;19911;-75
2023/06/04 12:01:39;;;;;;;;;;;;;;;-140.72;0.00;51599.59;6224603;23;19911;-75
2023/06/04 12:04:11;;;;;;;;;;;;;;;-140.72;0.00;51550.91;6260167;23;19959;-75
2023/06/04 12:06:37;;;;;;;;;;;;;;;-140.72;0.00;51581.31;6235828;23;19959;-75
2023/06/04 12:09:04;;;;;;;;;;;;;;;-140.72;0.00;51563.06;6250937;23;19915;-74
2023/06/04 12:11:32;;;;;;;;;;;;;;;-140.72;0.00;51595.53;6220913;23;19911;-74
2023/06/04 12:13:59;;;;;;;;;;;;;;;-140.72;0.00;51575.25;6248241;23;19919;-74
2023/06/04 12:16:24;;;;;;;;;;;;;;;-140.72;0.00;51536.69;6246614;23;20215;-74
2023/06/04 12:19:12;;;;;;;;;;;;;;;-140.72;0.00;51552.94;6219291;23;19943;-75
2023/06/04 12:21:38;;;;;;;;;;;;;;;-140.72;0.00;51554.94;6246412;23;19911;-73
2023/06/04 12:24:07;;;;;;;;;;;;;;;-140.72;0.00;51554.94;6246002;23;19981;-75
2023/06/04 12:26:37;;;;;;;;;;;;;;;-140.72;0.00;51571.19;6246440;23;19915;-73
2023/06/04 12:32:01;;;;;;;;;;;;;;;-140.72;0.00;51534.66;6246575;23;19980;-73
2023/06/04 12:34:26;;;;;;;;;;;;;;;-140.72;0.00;51532.63;6246678;23;19998;-73
2023/06/04 12:36:51;;;;;;;;;;;;;;;-140.72;0.00;51508.28;6246871;23;19915;-74
2023/06/04 12:39:16;;;;;;;;;;;;;;;-140.72;0.00;51504.25;6253405;23;19954;-75
2023/06/04 12:41:45;;;;;;;;;;;;;;;-140.72;0.00;51550.91;6219998;23;19915;-72
2023/06/04 12:44:10;;;;;;;;;;;;;;;-140.72;0.00;51494.09;6246509;23;19912;-71